Time;durP1;ratioP1;P1;durP2;ratioP2;P2;SDS_P1;SDS_P2;PMS_P1;PMS_P2;Temp;Humidity;BMP_temperature;BMP_pressure;BME280_temperature;BME280_humidity;BME280_pressure;Samples;Min_cycle;Max_cycle;Signal;HPM_P1;HPM_P2
2023/04/12 00:00:16;;;;;;;6.05;2.35;;;;;;;5.61;100.00;100633.22;4984771;28;20053;-75
2023/04/12 00:02:43;;;;;;;4.47;1.55;;;;;;;5.63;100.00;100626.28;4997892;28;20042;-75
2023/04/12 00:05:12;;;;;;;4.10;1.65;;;;;;;5.64;100.00;100615.88;4993126;28;20054;-75
2023/04/12 00:07:41;;;;;;;6.85;2.38;;;;;;;5.64;100.00;100607.16;4982821;28;20097;-74
2023/04/12 00:10:09;;;;;;;3.75;2.00;;;;;;;5.65;100.00;100598.44;4987728;28;20056;-75
2023/04/12 00:12:36;;;;;;;5.68;2.45;;;;;;;5.64;100.00;100588.84;4925002;28;20057;-74
2023/04/12 00:15:03;;;;;;;9.30;2.35;;;;;;;5.65;100.00;100587.97;4984922;28;20053;-75
2023/04/12 00:17:34;;;;;;;11.18;2.47;;;;;;;5.65;100.00;100578.44;4996770;28;20057;-75
2023/04/12 00:20:10;;;;;;;10.70;3.03;;;;;;;5.67;100.00;100565.38;4962411;28;20049;-75
2023/04/12 00:22:40;;;;;;;6.90;1.70;;;;;;;5.67;100.00;100565.38;4957971;28;20049;-75
2023/04/12 00:25:08;;;;;;;8.48;2.20;;;;;;;5.68;100.00;100558.44;5005977;28;20050;-75
2023/04/12 00:27:36;;;;;;;6.63;1.92;;;;;;;5.67;100.00;100554.91;4945642;28;20042;-75
2023/04/12 00:30:03;;;;;;;10.10;2.42;;;;;;;5.68;100.00;100543.59;4991162;28;20058;-75
2023/04/12 00:32:31;;;;;;;12.43;2.60;;;;;;;5.70;100.00;100544.50;4989176;28;20053;-75
2023/04/12 00:34:58;;;;;;;10.73;2.10;;;;;;;5.70;100.00;100539.28;4996028;28;20065;-74
2023/04/12 00:37:25;;;;;;;5.82;2.28;;;;;;;5.72;100.00;100534.97;4997528;28;20049;-75
2023/04/12 00:39:53;;;;;;;15.73;2.70;;;;;;;5.74;100.00;100535.88;4989704;28;20038;-75
2023/04/12 00:42:20;;;;;;;5.68;1.80;;;;;;;5.75;100.00;100529.81;4965364;28;20042;-75
2023/04/12 00:44:47;;;;;;;6.18;2.50;;;;;;;5.77;100.00;100516.75;4968215;28;20094;-75
2023/04/12 00:47:16;;;;;;;11.63;2.22;;;;;;;5.76;100.00;100515.84;4987834;28;20085;-76
2023/04/12 00:49:43;;;;;;;8.23;1.95;;;;;;;5.79;100.00;100510.69;4977170;28;20046;-75
2023/04/12 00:52:13;;;;;;;6.15;2.10;;;;;;;5.79;100.00;100497.63;4963380;28;20053;-76
2023/04/12 00:54:42;;;;;;;8.20;2.05;;;;;;;5.80;100.00;100496.78;4991291;28;20505;-76
2023/04/12 00:57:10;;;;;;;12.27;2.35;;;;;;;5.81;100.00;100490.69;4990788;28;20108;-74
2023/04/12 00:59:37;;;;;;;7.22;1.83;;;;;;;5.83;100.00;100485.47;4930964;28;20046;-76
2023/04/12 01:02:06;;;;;;;9.18;2.28;;;;;;;5.83;100.00;100482.88;4989503;28;20069;-76
2023/04/12 01:04:36;;;;;;;3.28;1.75;;;;;;;5.85;100.00;100482.03;5005926;28;20492;-76
2023/04/12 01:07:43;;;;;;;7.68;1.90;;;;;;;5.86;100.00;100469.84;4977897;28;20049;-76
2023/04/12 01:10:27;;;;;;;11.88;2.65;;;;;;;5.89;100.00;100464.66;5002098;28;20512;-74
2023/04/12 01:13:11;;;;;;;5.35;1.98;;;;;;;5.91;100.00;100456.84;4989199;28;20072;-75
2023/04/12 01:15:50;;;;;;;11.02;2.45;;;;;;;5.93;100.00;100462.97;4945602;28;20050;-75
2023/04/12 01:18:27;;;;;;;9.40;2.23;;;;;;;5.94;100.00;100447.31;4990779;28;20523;-75
2023/04/12 01:21:09;;;;;;;8.75;2.05;;;;;;;5.96;100.00;100442.13;5004811;28;20312;-75
2023/04/12 01:23:56;;;;;;;8.45;2.00;;;;;;;5.97;100.00;100433.41;4972691;28;20053;-74
2023/04/12 01:26:51;;;;;;;5.82;2.20;;;;;;;5.99;100.00;100432.59;4985884;28;20058;-74
2023/04/12 01:29:20;;;;;;;8.73;2.25;;;;;;;6.00;100.00;100429.13;4992043;28;20061;-75
2023/04/12 01:31:56;;;;;;;5.70;2.10;;;;;;;6.02;100.00;100416.94;4952070;28;20076;-75
2023/04/12 01:34:27;;;;;;;6.53;2.38;;;;;;;6.03;100.00;100416.09;5008367;28;20049;-75
2023/04/12 01:36:57;;;;;;;9.07;2.28;;;;;;;6.05;100.00;100405.66;5006297;28;20050;-76
2023/04/12 01:39:25;;;;;;;4.22;2.05;;;;;;;6.07;100.00;100403.03;4986396;28;20053;-75
2023/04/12 01:41:52;;;;;;;6.05;2.20;;;;;;;6.07;100.00;100395.19;4989438;28;20073;-75
2023/04/12 01:44:19;;;;;;;5.13;2.47;;;;;;;6.07;100.00;100390.88;5008855;28;20042;-76
2023/04/12 01:46:47;;;;;;;10.95;2.50;;;;;;;6.07;100.00;100390.88;4961739;28;20060;-75
2023/04/12 01:49:16;;;;;;;6.45;2.75;;;;;;;6.09;100.00;100378.69;5006911;28;20157;-75
2023/04/12 01:51:49;;;;;;;9.18;2.92;;;;;;;6.10;100.00;100371.69;4982395;28;20058;-75
2023/04/12 01:54:22;;;;;;;5.85;1.92;;;;;;;6.11;100.00;100366.50;4971315;28;20042;-75
2023/04/12 01:56:57;;;;;;;8.13;2.40;;;;;;;6.13;100.00;100370.00;4994322;28;20038;-75
2023/04/12 01:59:29;;;;;;;9.65;2.50;;;;;;;6.14;100.00;100360.41;4989030;28;20057;-75
2023/04/12 02:01:57;;;;;;;8.57;2.38;;;;;;;6.15;100.00;100352.59;4940802;28;20056;-75
2023/04/12 02:04:26;;;;;;;7.05;2.40;;;;;;;6.18;100.00;100357.88;5005894;28;20523;-75
2023/04/12 02:06:55;;;;;;;7.30;2.30;;;;;;;6.20;100.00;100339.56;4987233;28;20050;-76
2023/04/12 02:09:22;;;;;;;7.85;2.30;;;;;;;6.22;100.00;100341.34;4968100;28;20413;-76
2023/04/12 02:11:50;;;;;;;10.43;2.40;;;;;;;6.24;100.00;100336.16;4995319;28;20037;-76
2023/04/12 02:14:17;;;;;;;9.95;2.28;;;;;;;6.27;100.00;100327.44;4985306;28;20058;-76
2023/04/12 02:16:46;;;;;;;12.52;2.38;;;;;;;6.29;100.00;100323.13;4962225;28;20053;-76
2023/04/12 02:19:14;;;;;;;9.15;2.22;;;;;;;6.30;100.00;100322.25;4942748;28;20065;-76
2023/04/12 02:21:45;;;;;;;5.57;2.53;;;;;;;6.32;100.00;100307.47;4982333;28;20053;-76
2023/04/12 02:24:13;;;;;;;;;;;;;;;6.32;100.00;100308.31;4986325;28;20047;-74
2023/04/12 02:26:43;;;;;;;7.90;2.80;;;;;;;6.33;100.00;100293.50;4975756;28;20388;-74
2023/04/12 02:29:12;;;;;;;7.50;2.85;;;;;;;6.35;100.00;100286.53;4967506;28;20077;-75
2023/04/12 02:31:40;;;;;;;12.50;2.72;;;;;;;6.37;100.00;100279.59;4982088;28;20069;-75
2023/04/12 02:34:12;;;;;;;12.20;3.72;;;;;;;6.37;100.00;100275.25;4937777;28;20394;-75
2023/04/12 02:36:48;;;;;;;5.90;2.40;;;;;;;6.38;100.00;100276.13;4981780;28;20050;-75
2023/04/12 02:39:20;;;;;;;12.95;3.30;;;;;;;6.38;100.00;100277.00;4985099;28;20050;-75
2023/04/12 02:41:50;;;;;;;9.57;2.47;;;;;;;6.41;100.00;100270.94;4979913;28;20050;-74
2023/04/12 02:44:17;;;;;;;7.88;2.83;;;;;;;6.41;100.00;100268.31;4984927;28;20073;-75
2023/04/12 02:46:57;;;;;;;8.27;2.80;;;;;;;6.40;100.00;100264.78;4963565;28;20422;-74
2023/04/12 02:49:24;;;;;;;10.85;2.97;;;;;;;6.41;100.00;100266.56;4922976;28;20395;-74
2023/04/12 02:51:53;;;;;;;8.88;2.65;;;;;;;6.41;100.00;100261.31;4991438;28;20081;-76
2023/04/12 02:54:26;;;;;;;12.23;3.42;;;;;;;6.42;100.00;100255.22;4965729;28;20058;-74
2023/04/12 02:56:55;;;;;;;6.90;2.65;;;;;;;6.43;100.00;100245.66;4965097;28;20053;-74
2023/04/12 02:59:43;;;;;;;9.82;2.60;;;;;;;6.42;100.00;100236.91;4967738;28;20254;-74
2023/04/12 03:02:16;;;;;;;10.55;3.75;;;;;;;6.44;100.00;100229.94;4982294;28;20046;-74
2023/04/12 03:04:45;;;;;;;6.88;2.58;;;;;;;6.44;100.00;100216.84;4914283;28;20050;-74
2023/04/12 03:07:18;;;;;;;11.00;3.35;;;;;;;6.47;100.00;100209.91;4995012;28;20510;-74
2023/04/12 03:09:49;;;;;;;14.50;3.47;;;;;;;6.47;100.00;100196.84;4982181;28;20057;-75
2023/04/12 03:12:19;;;;;;;8.20;2.70;;;;;;;6.48;100.00;100193.34;4979449;28;20473;-74
2023/04/12 03:15:00;;;;;;;7.60;3.13;;;;;;;6.48;100.00;100194.19;4980273;28;20083;-76
2023/04/12 03:17:27;;;;;;;6.25;2.75;;;;;;;6.48;100.00;100188.09;4995792;28;20418;-76
2023/04/12 03:20:09;;;;;;;8.25;2.80;;;;;;;6.50;100.00;100191.59;4930700;28;20055;-76
2023/04/12 03:22:43;;;;;;;8.88;3.50;;;;;;;6.49;100.00;100182.88;4996589;28;20058;-76
2023/04/12 03:25:11;;;;;;;10.98;3.33;;;;;;;6.51;100.00;100173.31;4980905;28;20051;-76
2023/04/12 03:27:45;;;;;;;8.75;2.95;;;;;;;6.52;100.00;100166.31;4954208;28;20073;-75
2023/04/12 03:30:15;;;;;;;5.38;3.10;;;;;;;6.54;100.00;100162.88;4978173;28;20051;-75
2023/04/12 03:32:43;;;;;;;8.45;2.97;;;;;;;6.55;100.00;100159.38;4979663;28;20274;-75
2023/04/12 03:35:11;;;;;;;10.82;3.20;;;;;;;6.56;100.00;100144.53;4934820;28;20042;-75
2023/04/12 03:37:42;;;;;;;10.65;3.28;;;;;;;6.57;100.00;100138.44;4978851;28;20050;-75
2023/04/12 03:40:11;;;;;;;8.18;3.05;;;;;;;6.57;100.00;100131.47;4982223;28;20046;-75
2023/04/12 03:42:43;;;;;;;8.32;3.28;;;;;;;6.58;100.00;100128.00;4971966;28;20517;-76
2023/04/12 03:45:13;;;;;;;7.10;2.73;;;;;;;6.59;100.00;100131.47;4984526;28;20077;-76
2023/04/12 03:47:44;;;;;;;10.00;3.30;;;;;;;6.58;100.00;100121.88;4977746;28;21142;-76
2023/04/12 03:50:13;;;;;;;13.35;3.53;;;;;;;6.60;100.00;100114.91;4941070;28;20050;-76
2023/04/12 03:52:49;;;;;;;9.18;4.22;;;;;;;6.60;100.00;100114.91;4996374;28;20053;-76
2023/04/12 03:55:17;;;;;;;8.75;3.35;;;;;;;6.61;100.00;100107.06;4972466;28;20046;-76
2023/04/12 03:57:47;;;;;;;13.77;3.53;;;;;;;6.62;100.00;100098.34;4962699;28;20050;-76
2023/04/12 04:00:16;;;;;;;9.98;3.10;;;;;;;6.63;100.00;100086.13;4943417;28;20069;-76
2023/04/12 04:02:46;;;;;;;8.63;3.13;;;;;;;6.64;100.00;100074.81;4962731;28;20056;-77
2023/04/12 04:05:15;;;;;;;8.52;3.58;;;;;;;6.66;100.00;100072.19;4927461;28;20065;-73
2023/04/12 04:07:44;;;;;;;9.23;3.75;;;;;;;6.66;100.00;100065.22;4975808;28;20065;-74
2023/04/12 04:10:14;;;;;;;9.82;3.83;;;;;;;6.69;100.00;100056.50;4985489;28;20058;-76
2023/04/12 04:12:43;;;;;;;9.07;2.92;;;;;;;6.70;100.00;100051.28;4985508;28;20057;-74
2023/04/12 04:15:14;;;;;;;4.43;2.63;;;;;;;6.72;100.00;100043.44;4968926;28;20050;-74
2023/04/12 04:17:41;;;;;;;8.35;3.28;;;;;;;6.73;100.00;100042.53;4965430;28;20050;-77
2023/04/12 04:20:12;;;;;;;5.78;2.88;;;;;;;6.73;100.00;100027.75;4963985;28;20416;-74
2023/04/12 04:22:43;;;;;;;7.57;3.10;;;;;;;6.74;100.00;100033.84;4951022;28;20047;-75
2023/04/12 04:25:13;;;;;;;10.38;3.50;;;;;;;6.76;100.00;100032.97;4975879;28;20049;-75
2023/04/12 04:27:45;;;;;;;7.45;3.22;;;;;;;6.76;100.00;100021.63;4971158;28;20145;-75
2023/04/12 04:30:14;;;;;;;5.85;3.13;;;;;;;6.76;100.00;100025.13;4989946;28;20086;-75
2023/04/12 04:32:44;;;;;;;10.73;3.65;;;;;;;6.75;100.00;100020.75;4983389;28;20061;-75
2023/04/12 04:35:14;;;;;;;7.72;3.08;;;;;;;6.73;100.00;100022.50;4938039;28;20050;-75
2023/04/12 04:37:56;;;;;;;11.55;3.60;;;;;;;6.73;100.00;100011.13;4964956;28;20061;-75
2023/04/12 04:40:27;;;;;;;9.95;4.15;;;;;;;6.71;100.00;100018.09;4978833;28;20058;-75
2023/04/12 04:42:56;;;;;;;6.93;3.55;;;;;;;6.70;100.00;100021.59;4971391;28;20065;-75
2023/04/12 04:45:25;;;;;;;11.13;3.65;;;;;;;6.68;100.00;100015.50;4937313;28;20099;-75
2023/04/12 04:47:54;;;;;;;10.00;3.67;;;;;;;6.67;100.00;100014.59;4981923;28;20520;-75
2023/04/12 04:50:23;;;;;;;13.25;4.10;;;;;;;6.65;100.00;100008.47;4983012;28;20046;-75
2023/04/12 04:52:52;;;;;;;13.70;4.15;;;;;;;6.63;100.00;100005.88;4921966;28;20054;-75
2023/04/12 04:55:21;;;;;;;11.48;3.60;;;;;;;6.63;100.00;100004.97;4972650;28;20039;-75
2023/04/12 04:57:49;;;;;;;7.00;4.03;;;;;;;6.61;100.00;100006.72;4985243;28;20065;-75
2023/04/12 05:00:18;;;;;;;5.75;3.80;;;;;;;6.59;100.00;100001.44;4982025;28;20046;-75
2023/04/12 05:02:52;;;;;;;9.50;3.60;;;;;;;6.59;100.00;100008.44;4984991;28;20046;-75
2023/04/12 05:05:26;;;;;;;8.95;3.28;;;;;;;6.57;100.00;99990.09;4966606;28;20845;-75
2023/04/12 05:08:01;;;;;;;11.32;3.80;;;;;;;6.56;100.00;99984.84;4942963;28;20042;-75
2023/04/12 05:10:30;;;;;;;9.07;3.05;;;;;;;6.55;100.00;99978.75;4951082;28;20072;-75
2023/04/12 05:13:01;;;;;;;10.90;4.25;;;;;;;6.54;100.00;99984.88;4968401;28;20054;-74
2023/04/12 05:15:30;;;;;;;13.75;4.53;;;;;;;6.54;100.00;99977.03;4956149;28;20130;-74
2023/04/12 05:17:58;;;;;;;6.57;3.67;;;;;;;6.53;100.00;99975.25;4984597;28;20066;-75
2023/04/12 05:20:26;;;;;;;11.63;3.72;;;;;;;6.54;100.00;99968.25;4972060;28;20050;-75
2023/04/12 05:22:53;;;;;;;10.45;3.60;;;;;;;6.52;100.00;99963.06;4988562;28;20053;-75
2023/04/12 05:25:21;;;;;;;11.82;3.97;;;;;;;6.53;100.00;99966.53;4918010;28;20053;-75
2023/04/12 05:28:00;;;;;;;8.00;3.40;;;;;;;6.53;100.00;99958.69;4987180;28;20049;-77
2023/04/12 05:30:30;;;;;;;11.25;3.38;;;;;;;6.52;100.00;99952.59;4962286;28;20530;-76
2023/04/12 05:32:58;;;;;;;9.07;3.30;;;;;;;6.51;100.00;99942.09;4958639;28;20382;-77
2023/04/12 05:35:26;;;;;;;8.30;3.33;;;;;;;6.52;100.00;99951.69;4999864;28;20381;-75
2023/04/12 05:37:57;;;;;;;8.00;3.50;;;;;;;6.53;100.00;99948.22;5002066;28;20057;-75
2023/04/12 05:40:25;;;;;;;9.35;2.83;;;;;;;6.53;100.00;99936.00;4925271;28;20046;-74
2023/04/12 05:42:53;;;;;;;7.28;3.03;;;;;;;6.54;100.00;99944.72;4981372;28;20054;-76
2023/04/12 05:45:21;;;;;;;12.27;3.78;;;;;;;6.53;100.00;99936.00;4963283;28;20053;-74
2023/04/12 05:47:48;;;;;;;9.45;4.93;;;;;;;6.55;100.00;99922.91;4989345;28;20420;-74
2023/04/12 05:50:16;;;;;;;8.38;3.60;;;;;;;6.55;100.00;99918.53;4982650;28;20064;-75
2023/04/12 05:52:43;;;;;;;9.57;3.22;;;;;;;6.56;100.00;99915.06;4986143;28;20404;-74
2023/04/12 05:55:11;;;;;;;8.50;3.30;;;;;;;6.57;100.00;99911.56;4936077;28;20058;-74
2023/04/12 05:57:43;;;;;;;7.97;2.58;;;;;;;6.57;100.00;99908.94;4977467;28;20053;-75
2023/04/12 06:00:15;;;;;;;6.50;2.97;;;;;;;6.57;100.00;99913.31;4984326;28;20074;-75
2023/04/12 06:02:45;;;;;;;9.80;3.00;;;;;;;6.57;100.00;99915.94;4976167;28;20073;-76
2023/04/12 06:05:15;;;;;;;6.40;2.65;;;;;;;6.59;100.00;99914.19;4965866;28;20050;-75
2023/04/12 06:07:47;;;;;;;9.45;2.70;;;;;;;6.60;100.00;99919.44;4968080;28;20068;-75
2023/04/12 06:10:16;;;;;;;3.95;2.20;;;;;;;6.62;100.00;99911.63;4949165;28;20052;-74
2023/04/12 06:12:47;;;;;;;5.32;2.65;;;;;;;6.65;100.00;99903.75;4918563;28;20072;-74
2023/04/12 06:15:15;;;;;;;4.75;2.33;;;;;;;6.66;100.00;99894.19;5003251;28;20244;-74
2023/04/12 06:17:42;;;;;;;6.32;2.53;;;;;;;6.67;100.00;99891.53;4975419;28;20113;-74
2023/04/12 06:20:11;;;;;;;6.85;2.97;;;;;;;6.71;100.00;99893.31;4972005;28;20476;-74
2023/04/12 06:22:38;;;;;;;8.73;2.90;;;;;;;6.72;100.00;99889.81;4979788;28;20050;-76
2023/04/12 06:25:07;;;;;;;6.82;2.65;;;;;;;6.73;100.00;99882.84;4936532;28;20046;-75
2023/04/12 06:27:34;;;;;;;4.28;2.33;;;;;;;6.74;100.00;99881.97;4955590;28;20053;-75
2023/04/12 06:30:02;;;;;;;6.18;1.98;;;;;;;6.75;100.00;99874.13;4984627;28;20049;-74
2023/04/12 06:32:33;;;;;;;6.07;2.47;;;;;;;6.75;100.00;99871.50;5000153;28;20060;-74
2023/04/12 06:35:00;;;;;;;7.25;2.63;;;;;;;6.77;100.00;99871.53;4973591;28;20030;-77
2023/04/12 06:37:28;;;;;;;6.10;2.22;;;;;;;6.78;100.00;99862.78;4968362;28;20413;-76
2023/04/12 06:39:55;;;;;;;7.38;3.03;;;;;;;6.77;100.00;99861.06;4970274;28;20058;-76
2023/04/12 06:42:23;;;;;;;8.18;2.35;;;;;;;6.78;100.00;99853.19;4933781;28;20057;-76
2023/04/12 06:44:50;;;;;;;6.78;2.70;;;;;;;6.77;100.00;99848.81;4967784;28;20058;-76
2023/04/12 06:47:17;;;;;;;3.78;1.95;;;;;;;6.79;100.00;99848.84;4964588;28;20053;-76
2023/04/12 06:49:44;;;;;;;7.28;2.65;;;;;;;6.78;100.00;99842.69;4990609;28;20050;-76
2023/04/12 06:52:12;;;;;;;7.60;2.42;;;;;;;6.78;100.00;99842.69;4958671;28;20057;-76
2023/04/12 06:54:39;;;;;;;6.57;2.08;;;;;;;6.78;100.00;99842.69;4976157;28;20049;-75
2023/04/12 06:57:10;;;;;;;7.47;2.50;;;;;;;6.79;100.00;99839.22;4956414;28;20054;-76
2023/04/12 06:59:37;;;;;;;9.60;2.83;;;;;;;6.81;100.00;99840.09;4975084;28;20062;-78
2023/04/12 07:02:06;;;;;;;9.43;2.70;;;;;;;6.82;100.00;99839.25;4964909;28;20054;-75
2023/04/12 07:04:33;;;;;;;4.63;2.25;;;;;;;6.82;100.00;99831.38;4981330;28;20057;-75
2023/04/12 07:07:01;;;;;;;6.72;2.72;;;;;;;6.82;100.00;99841.88;4951188;28;20716;-75
2023/04/12 07:09:31;;;;;;;4.53;2.50;;;;;;;6.81;100.00;99837.47;4981171;28;20049;-76
2023/04/12 07:11:59;;;;;;;;;;;;;;;6.81;100.00;99829.63;4926922;28;20527;-76
2023/04/12 07:14:27;;;;;;;5.28;2.55;;;;;;;6.84;100.00;99836.59;4988453;28;19921;-76
2023/04/12 07:16:54;;;;;;;4.15;2.60;;;;;;;6.86;100.00;99834.00;4963149;28;20046;-76
2023/04/12 07:19:22;;;;;;;5.85;2.58;;;;;;;6.89;100.00;99834.00;4981441;28;20042;-76
2023/04/12 07:21:50;;;;;;;6.57;2.85;;;;;;;6.92;100.00;99828.75;4974443;28;20054;-76
2023/04/12 07:24:17;;;;;;;4.50;2.42;;;;;;;6.93;100.00;99823.53;4990204;28;20057;-77
2023/04/12 07:26:44;;;;;;;5.93;2.88;;;;;;;6.95;100.00;99823.53;4993857;28;20053;-78
2023/04/12 07:29:12;;;;;;;7.53;3.08;;;;;;;6.96;100.00;99810.44;4913431;28;20054;-75
2023/04/12 07:31:39;;;;;;;7.28;2.40;;;;;;;6.97;100.00;99811.31;4982415;28;20054;-75
2023/04/12 07:34:06;;;;;;;6.15;2.95;;;;;;;6.96;100.00;99809.59;4991441;28;20045;-74
2023/04/12 07:36:34;;;;;;;7.35;2.30;;;;;;;6.95;100.00;99816.53;4958410;28;20038;-75
2023/04/12 07:39:01;;;;;;;8.05;2.60;;;;;;;6.95;100.00;99799.97;4940384;28;20057;-75
2023/04/12 07:41:28;;;;;;;4.03;2.20;;;;;;;6.95;100.00;99803.44;4976262;28;20038;-77
2023/04/12 07:43:56;;;;;;;4.68;2.22;;;;;;;6.95;100.00;99803.44;4940121;28;20056;-75
2023/04/12 07:46:23;;;;;;;4.65;2.80;;;;;;;6.95;100.00;99799.97;4973537;28;20082;-77
2023/04/12 07:48:50;;;;;;;5.10;2.83;;;;;;;6.95;100.00;99797.34;5003297;28;20041;-76
2023/04/12 07:51:18;;;;;;;3.45;2.20;;;;;;;6.95;100.00;99799.97;4995092;28;20069;-74
2023/04/12 07:53:47;;;;;;;5.55;2.72;;;;;;;6.96;100.00;99793.88;4975578;28;20361;-75
2023/04/12 07:56:15;;;;;;;5.63;2.80;;;;;;;6.97;100.00;99795.59;4982330;28;20041;-75
2023/04/12 07:58:42;;;;;;;10.30;3.25;;;;;;;6.98;100.00;99786.88;4924694;28;20042;-75
2023/04/12 08:01:14;;;;;;;6.40;2.75;;;;;;;6.97;100.00;99787.75;4986966;28;20050;-75
2023/04/12 08:03:41;;;;;;;5.50;3.10;;;;;;;6.96;100.00;99784.25;4967364;28;20062;-75
2023/04/12 08:06:09;;;;;;;6.13;3.00;;;;;;;6.97;100.00;99775.50;4949505;28;20583;-75
2023/04/12 08:08:36;;;;;;;7.22;2.95;;;;;;;6.98;100.00;99779.88;4980929;28;20061;-74
2023/04/12 08:11:05;;;;;;;5.60;2.88;;;;;;;6.99;100.00;99778.13;4971875;28;20045;-74
2023/04/12 08:13:33;;;;;;;5.95;2.97;;;;;;;6.99;100.00;99778.13;4925115;28;20045;-74
2023/04/12 08:16:00;;;;;;;7.13;2.63;;;;;;;7.00;100.00;99770.28;4992240;28;20045;-74
2023/04/12 08:18:28;;;;;;;4.47;2.88;;;;;;;7.01;100.00;99766.81;4984275;28;20049;-75
2023/04/12 08:20:57;;;;;;;4.20;2.90;;;;;;;7.02;100.00;99771.16;4982795;28;20050;-75
2023/04/12 08:23:25;;;;;;;8.50;2.85;;;;;;;7.05;100.00;99766.78;4980754;28;20062;-75
2023/04/12 08:26:01;;;;;;;4.22;3.22;;;;;;;7.05;100.00;99765.06;4970433;28;20042;-74
2023/04/12 08:28:29;;;;;;;3.42;2.63;;;;;;;7.07;100.00;99765.03;4957292;28;20046;-74
2023/04/12 08:30:57;;;;;;;8.48;3.55;;;;;;;7.06;100.00;99755.44;4988726;28;20057;-74
2023/04/12 08:33:25;;;;;;;6.88;3.20;;;;;;;7.07;100.00;99762.41;4979728;28;20069;-74
2023/04/12 08:35:53;;;;;;;4.82;2.97;;;;;;;7.08;100.00;99757.19;4982173;28;20055;-76
2023/04/12 08:38:21;;;;;;;5.45;3.15;;;;;;;7.10;100.00;99765.91;4998574;28;20054;-76
2023/04/12 08:41:06;;;;;;;9.88;3.05;;;;;;;7.12;100.00;99758.94;4985828;28;20507;-76
2023/04/12 08:43:37;;;;;;;4.30;3.25;;;;;;;7.16;100.00;99758.03;4970050;28;20049;-75
2023/04/12 08:46:06;;;;;;;7.97;2.85;;;;;;;7.20;100.00;99756.31;4900694;28;20061;-74
2023/04/12 08:48:35;;;;;;;5.22;2.97;;;;;;;7.22;100.00;99750.22;4971973;28;20065;-75
2023/04/12 08:51:03;;;;;;;5.07;2.65;;;;;;;7.22;100.00;99750.22;4984085;28;20058;-74
2023/04/12 08:53:30;;;;;;;3.35;2.78;;;;;;;7.24;100.00;99758.06;4987490;28;21229;-74
2023/04/12 08:55:57;;;;;;;6.20;3.00;;;;;;;7.25;100.00;99753.69;4982766;28;20041;-74
2023/04/12 08:58:25;;;;;;;5.90;2.95;;;;;;;7.26;100.00;99751.09;4998263;28;20475;-76
2023/04/12 09:00:53;;;;;;;5.68;3.28;;;;;;;7.26;100.00;99745.84;4939651;28;20058;-76
2023/04/12 09:03:20;;;;;;;3.70;2.85;;;;;;;7.27;100.00;99742.31;4987268;28;20038;-76
2023/04/12 09:05:48;;;;;;;4.22;3.17;;;;;;;7.26;100.00;99745.84;4999764;28;20057;-76
2023/04/12 09:08:16;;;;;;;6.03;3.47;;;;;;;7.29;100.00;99750.19;4966183;28;20046;-74
2023/04/12 09:10:43;;;;;;;5.72;2.95;;;;;;;7.31;100.00;99754.53;4977232;28;20524;-74
2023/04/12 09:13:11;;;;;;;4.40;3.05;;;;;;;7.35;100.00;99750.19;4973752;28;20050;-74
2023/04/12 09:15:50;;;;;;;6.07;3.30;;;;;;;7.37;100.00;99753.66;4944789;28;20064;-76
2023/04/12 09:18:17;;;;;;;4.00;2.92;;;;;;;7.38;100.00;99745.81;4966891;28;20804;-76
2023/04/12 09:20:44;;;;;;;4.45;2.90;;;;;;;7.40;100.00;99741.44;5003372;28;20113;-76
2023/04/12 09:23:20;;;;;;;5.10;3.22;;;;;;;7.42;100.00;99744.91;4982875;28;20188;-76
2023/04/12 09:25:51;;;;;;;4.28;3.38;;;;;;;7.42;100.00;99742.31;4988124;28;20053;-76
2023/04/12 09:28:25;;;;;;;7.72;4.07;;;;;;;7.47;100.00;99744.06;4994839;28;20100;-74
2023/04/12 09:30:54;;;;;;;3.72;3.08;;;;;;;7.52;100.00;99747.53;4943821;28;20058;-77
2023/04/12 09:33:32;;;;;;;5.22;3.63;;;;;;;7.59;100.00;99739.66;4992118;28;20041;-75
2023/04/12 09:36:01;;;;;;;3.75;3.15;;;;;;;7.68;100.00;99748.38;4981371;28;20165;-75
2023/04/12 09:38:30;;;;;;;4.15;3.45;;;;;;;7.73;100.00;99746.59;4986821;28;20050;-76
2023/04/12 09:41:16;;;;;;;7.85;3.92;;;;;;;7.77;100.00;99753.59;4986168;28;20982;-76
2023/04/12 09:43:47;;;;;;;4.38;3.53;;;;;;;7.78;100.00;99750.09;4989338;28;20065;-76
2023/04/12 09:46:15;;;;;;;3.40;3.10;;;;;;;7.79;100.00;99746.59;4928583;28;20792;-76
2023/04/12 09:48:54;;;;;;;4.47;3.47;;;;;;;7.79;100.00;99739.59;4959901;28;20062;-77
2023/04/12 09:51:28;;;;;;;4.50;3.38;;;;;;;7.82;100.00;99736.09;4989102;28;20085;-76
2023/04/12 09:54:01;;;;;;;4.70;3.60;;;;;;;7.87;100.00;99734.31;5000285;28;20141;-77
2023/04/12 09:56:30;;;;;;;5.93;3.60;;;;;;;7.92;100.00;99732.56;4989787;28;20054;-76
2023/04/12 09:59:03;;;;;;;4.10;3.70;;;;;;;7.99;100.00;99730.78;4988198;28;20049;-76
2023/04/12 10:01:37;;;;;;;7.32;4.70;;;;;;;8.05;100.00;99735.13;4951729;28;20496;-76
2023/04/12 10:04:06;;;;;;;11.35;8.00;;;;;;;8.06;100.00;99723.78;4977698;28;20045;-76
2023/04/12 10:06:36;;;;;;;8.80;7.40;;;;;;;8.10;100.00;99722.88;5001609;28;20065;-76
2023/04/12 10:09:04;;;;;;;5.10;4.70;;;;;;;8.18;100.00;99719.34;4984981;28;20509;-76
2023/04/12 10:11:32;;;;;;;5.07;4.60;;;;;;;8.31;100.00;99716.63;5003471;28;20061;-76
2023/04/12 10:14:04;;;;;;;7.85;4.20;;;;;;;8.44;100.00;99713.09;4977854;28;20084;-75
2023/04/12 10:16:37;;;;;;;5.28;4.28;;;;;;;8.51;100.00;99711.31;4938177;28;20041;-76
2023/04/12 10:19:06;;;;;;;4.47;4.07;;;;;;;8.59;100.00;99720.00;4985669;28;20496;-76
2023/04/12 10:21:33;;;;;;;10.38;4.45;;;;;;;8.68;100.00;99708.56;4969802;28;20065;-76
2023/04/12 10:24:01;;;;;;;4.07;3.80;;;;;;;8.82;100.00;99711.94;5002440;28;20045;-75
2023/04/12 10:26:28;;;;;;;4.40;4.10;;;;;;;8.95;100.00;99713.59;5004055;28;20536;-76
2023/04/12 10:29:21;;;;;;;4.55;4.15;;;;;;;9.07;100.00;99707.34;4984490;28;20739;-75
2023/04/12 10:31:49;;;;;;;4.90;3.80;;;;;;;9.18;100.00;99713.38;4986005;28;20049;-76
2023/04/12 10:34:17;;;;;;;3.63;3.42;;;;;;;9.27;100.00;99707.16;4938868;28;20058;-76
2023/04/12 10:36:56;;;;;;;4.45;4.05;;;;;;;9.40;100.00;99710.56;4973549;28;20039;-76
2023/04/12 10:39:42;;;;;;;4.55;3.20;;;;;;;9.56;100.00;99701.63;4982919;28;20046;-76
2023/04/12 10:42:18;;;;;;;3.42;3.22;;;;;;;9.66;100.00;99689.22;4995965;28;20046;-76
2023/04/12 10:44:46;;;;;;;4.43;3.80;;;;;;;9.76;100.00;99693.47;4967522;28;20408;-77
2023/04/12 10:47:14;;;;;;;4.25;3.85;;;;;;;9.83;100.00;99693.41;4939744;28;20057;-76
2023/04/12 10:50:20;;;;;;;4.05;3.65;;;;;;;9.87;100.00;99695.13;4969276;28;20049;-77
2023/04/12 10:53:11;;;;;;;3.17;2.72;;;;;;;9.90;100.00;99693.31;4986295;28;20053;-76
2023/04/12 10:55:40;;;;;;;7.35;4.03;;;;;;;9.95;100.00;99695.91;4981993;28;20065;-77
2023/04/12 10:58:08;;;;;;;6.60;3.53;;;;;;;10.04;100.00;99697.56;4980306;28;20404;-76
2023/04/12 11:00:57;;;;;;;3.45;3.05;;;;;;;10.22;100.00;99693.78;4973036;28;20113;-76
2023/04/12 11:03:27;;;;;;;4.68;3.78;;;;;;;10.38;100.00;99681.28;4951928;28;20048;-76
2023/04/12 11:06:02;;;;;;;4.63;3.53;;;;;;;10.58;100.00;99687.13;4975372;28;20045;-76
2023/04/12 11:09:05;;;;;;;7.30;3.60;;;;;;;10.80;100.00;99686.81;4972691;28;20050;-76
2023/04/12 11:11:33;;;;;;;6.45;3.53;;;;;;;10.92;100.00;99695.38;4994805;28;20288;-77
2023/04/12 11:14:01;;;;;;;4.13;2.70;;;;;;;11.07;100.00;99696.00;4980301;28;20416;-76
2023/04/12 11:16:28;;;;;;;4.53;2.67;;;;;;;11.20;100.00;99694.91;4954164;28;20500;-77
2023/04/12 11:18:56;;;;;;;5.18;2.47;;;;;;;11.28;100.00;99702.69;4936014;28;20057;-77
2023/04/12 11:21:24;;;;;;;7.95;3.80;;;;;;;11.35;100.00;99693.75;4983521;28;20050;-77
2023/04/12 11:23:53;;;;;;;5.35;3.05;;;;;;;11.41;100.00;99688.38;4956616;28;20053;-77
2023/04/12 11:26:21;;;;;;;7.60;3.20;;;;;;;11.41;100.00;99692.78;4976900;28;20421;-75
2023/04/12 11:28:52;;;;;;;7.57;3.10;;;;;;;11.35;100.00;99693.75;4965576;28;20054;-75
2023/04/12 11:31:20;;;;;;;7.03;3.25;;;;;;;11.24;100.00;99696.59;4955243;28;20054;-77
2023/04/12 11:33:47;;;;;;;6.50;3.92;;;;;;;11.19;100.00;99694.91;4986481;28;20050;-77
2023/04/12 11:36:16;;;;;;;10.73;3.70;;;;;;;11.21;100.00;99679.94;4922677;28;20049;-77
2023/04/12 11:38:46;;;;;;;7.95;2.92;;;;;;;11.25;100.00;99671.09;4973758;28;20050;-75
2023/04/12 11:41:13;;;;;;;7.30;3.20;;;;;;;11.42;100.00;99671.66;4998791;28;20793;-75
2023/04/12 11:43:41;;;;;;;9.02;3.53;;;;;;;11.56;100.00;99670.50;5003066;28;20042;-76